Etusivu
METAR-TAF:

METAR-TAF

Lentoasemat :

Jyväskylän lentoasema

Jyväskylä, Suomi

Leveyspiiri: 62-24N, Pituuspiiri: 025-41E, korkeus merenpinnasta: 141 m

Tämänhetkinen sää

Tämä raportti tehtiin 7 minuuttia sitten, kello 13.50 UTC
Tuuli 5 kn pohjoisesta
Lämpötila 18°C
Kosteus 24%
Ilmanpaine 1029 hPa
Näkyvyys 10 km tai enemmän
ei pilviä alle 1500 m:ssä eikä cumulonimbus-pilviä

METAR: EFJY 241350Z AUTO 36005KT CAVOK 18/M03 Q1029

Aika: 16:57 (13:57 UTC)

Sääennuste

Tämä raportti tehtiin 2 tuntia ja 34 minuuttia sitten, kello 11.23 UTC
Ennuste voimassa 24. päivästä klo 12 UTC - 25. päivään klo 12 UTC
Tuuli 8 kn lännestä/luoteesta
Näkyvyys 10 km tai enemmän
ei pilviä alle 1500 m:ssä eikä cumulonimbus-pilviä
Tulossa
25. päivästä klo 06 UTC - 25. päivään klo 08 UTC
Tuuli 10 kn lounaasta

TAF: EFJY 241123Z 2412/2512 30008KT CAVOK BECMG 2506/2508 22010KT

Säähavainnot ja -ennusteet yli 4000 lentoasemalta (METAR- ja TAF-raportit).

Käytössä olevat sääasemat on merkitty karttaan keltaisilla ja punaisilla pisteillä.

Aseta hiiri pisteen päälle nähdäksesi sääaseman nimen.

Klikkaa sitten nähdäksesi säähavainnot ja -ennusteet.

Kartan vaihtaminen: klikkaa mustalla rastilla varustettuja vihreitä pisteitä, niin voit zoomata sisään; viivalla varustettua vihreää pistettä, niin voit zoomata ulos tai vihreitä nuolia, niin pääset viereisille kartoille.


METAR-TAF: